AAL2229 KLAX-KLAS
Flight info
| Callsign | AAL2229 |
|---|---|
| Flight time | 0h 46m |
| Altitude | 29000 |
| Route | ORCKA5 MISEN RNDRZ4 |
| Aircraft | B738/M-SDE2E3FGHIRWXY/LB1 |
Departure
| Time | 2026-05-06 10:56 |
|---|---|
| Airport | Los Angeles International Airport (KLAX) |
Arrival
| Time | 2026-05-06 11:43 |
|---|---|
| Airport | Harry Reid International Airport (KLAS) |
| Time | Latitude | Longitude | Altitude | Speed | Heading |
|---|---|---|---|---|---|
| 2026-05-06 10:38 | 33.94685 | -118.40989 | 92 ft | 0 kts | 220° |
| 2026-05-06 10:48 | 33.94696 | -118.40977 | 93 ft | 4 kts | 220° |
| 2026-05-06 10:48 | 33.94713 | -118.40960 | 92 ft | 4 kts | 213° |
| 2026-05-06 10:48 | 33.94734 | -118.40951 | 92 ft | 4 kts | 147° |
| 2026-05-06 10:48 | 33.94742 | -118.40973 | 93 ft | 4 kts | 83° |
| 2026-05-06 10:49 | 33.94740 | -118.40997 | 92 ft | 0 kts | 83° |
| 2026-05-06 10:51 | 33.94746 | -118.40941 | 95 ft | 9 kts | 82° |
| 2026-05-06 10:52 | 33.94778 | -118.40884 | 93 ft | 9 kts | 18° |
| 2026-05-06 10:52 | 33.94831 | -118.40862 | 93 ft | 8 kts | 52° |
| 2026-05-06 10:52 | 33.94843 | -118.40795 | 93 ft | 8 kts | 83° |
| 2026-05-06 10:52 | 33.94850 | -118.40727 | 95 ft | 8 kts | 83° |
| 2026-05-06 10:53 | 33.94858 | -118.40647 | 93 ft | 12 kts | 82° |
| 2026-05-06 10:53 | 33.94869 | -118.40541 | 93 ft | 13 kts | 82° |
| 2026-05-06 10:53 | 33.94880 | -118.40434 | 93 ft | 13 kts | 83° |
| 2026-05-06 10:53 | 33.94891 | -118.40331 | 94 ft | 12 kts | 83° |
| 2026-05-06 10:54 | 33.94901 | -118.40234 | 94 ft | 12 kts | 82° |
| 2026-05-06 10:54 | 33.94910 | -118.40139 | 93 ft | 11 kts | 83° |
| 2026-05-06 10:54 | 33.94920 | -118.40040 | 92 ft | 13 kts | 83° |
| 2026-05-06 10:54 | 33.94937 | -118.39943 | 92 ft | 11 kts | 64° |
| 2026-05-06 10:55 | 33.95003 | -118.39913 | 93 ft | 11 kts | 350° |
| 2026-05-06 10:55 | 33.95041 | -118.39965 | 93 ft | 8 kts | 265° |
| 2026-05-06 10:55 | 33.95020 | -118.40177 | 97 ft | 57 kts | 262° |
| 2026-05-06 10:55 | 33.94941 | -118.40934 | 96 ft | 123 kts | 263° |
| 2026-05-06 10:56 | 33.94815 | -118.42164 | 178 ft | 166 kts | 263° |
| 2026-05-06 10:56 | 33.94671 | -118.43590 | 678 ft | 175 kts | 263° |
| 2026-05-06 10:56 | 33.94528 | -118.45044 | 1407 ft | 177 kts | 263° |
| 2026-05-06 10:56 | 33.94374 | -118.46601 | 1706 ft | 203 kts | 262° |
| 2026-05-06 10:57 | 33.94183 | -118.48380 | 1909 ft | 225 kts | 262° |
| 2026-05-06 10:57 | 33.93787 | -118.50270 | 2189 ft | 242 kts | 242° |
| 2026-05-06 10:57 | 33.92608 | -118.51796 | 2572 ft | 256 kts | 210° |
| 2026-05-06 10:57 | 33.90919 | -118.52407 | 3261 ft | 261 kts | 182° |
| 2026-05-06 10:58 | 33.89119 | -118.51936 | 3942 ft | 267 kts | 153° |
| 2026-05-06 10:58 | 33.87725 | -118.50498 | 4601 ft | 273 kts | 124° |
| 2026-05-06 10:58 | 33.87030 | -118.48338 | 5269 ft | 277 kts | 95° |
| 2026-05-06 10:58 | 33.87274 | -118.46103 | 6020 ft | 273 kts | 65° |
| 2026-05-06 10:59 | 33.88320 | -118.44237 | 6858 ft | 268 kts | 45° |
| 2026-05-06 10:59 | 33.89659 | -118.42670 | 7647 ft | 269 kts | 43° |
| 2026-05-06 10:59 | 33.90939 | -118.41018 | 8421 ft | 270 kts | 50° |
| 2026-05-06 10:59 | 33.92134 | -118.39266 | 9256 ft | 270 kts | 51° |
| 2026-05-06 11:00 | 33.93316 | -118.37506 | 10100 ft | 270 kts | 51° |
| 2026-05-06 11:00 | 33.94506 | -118.35740 | 10609 ft | 283 kts | 51° |
| 2026-05-06 11:00 | 33.95808 | -118.33821 | 10781 ft | 307 kts | 51° |
| 2026-05-06 11:00 | 33.97217 | -118.31755 | 10944 ft | 329 kts | 50° |
| 2026-05-06 11:01 | 33.98712 | -118.29574 | 11302 ft | 343 kts | 50° |
| 2026-05-06 11:01 | 34.00246 | -118.27339 | 11909 ft | 348 kts | 50° |
| 2026-05-06 11:01 | 34.01798 | -118.25080 | 12629 ft | 350 kts | 49° |
| 2026-05-06 11:01 | 34.03366 | -118.22800 | 13341 ft | 354 kts | 49° |
| 2026-05-06 11:02 | 34.04947 | -118.20501 | 14024 ft | 358 kts | 49° |
| 2026-05-06 11:02 | 34.06521 | -118.18209 | 14667 ft | 361 kts | 49° |
| 2026-05-06 11:02 | 34.08149 | -118.15837 | 15381 ft | 363 kts | 49° |
| 2026-05-06 11:02 | 34.09763 | -118.13486 | 16103 ft | 366 kts | 49° |
| 2026-05-06 11:03 | 34.11373 | -118.11138 | 16768 ft | 369 kts | 49° |
| 2026-05-06 11:03 | 34.12955 | -118.08676 | 17432 ft | 373 kts | 53° |
| 2026-05-06 11:03 | 34.14433 | -118.06096 | 18087 ft | 376 kts | 54° |
| 2026-05-06 11:03 | 34.15900 | -118.03461 | 18711 ft | 378 kts | 54° |
| 2026-05-06 11:04 | 34.17367 | -118.00811 | 19295 ft | 381 kts | 54° |
| 2026-05-06 11:04 | 34.18846 | -117.98148 | 19870 ft | 382 kts | 54° |
| 2026-05-06 11:04 | 34.20336 | -117.95476 | 20351 ft | 385 kts | 54° |
| 2026-05-06 11:04 | 34.21844 | -117.92780 | 20932 ft | 387 kts | 54° |
| 2026-05-06 11:05 | 34.23341 | -117.90108 | 21433 ft | 390 kts | 53° |
| 2026-05-06 11:05 | 34.24870 | -117.87382 | 21967 ft | 393 kts | 53° |
| 2026-05-06 11:05 | 34.26408 | -117.84639 | 22505 ft | 395 kts | 53° |
| 2026-05-06 11:05 | 34.27958 | -117.81873 | 22987 ft | 397 kts | 53° |
| 2026-05-06 11:06 | 34.29510 | -117.79099 | 23473 ft | 399 kts | 53° |
| 2026-05-06 11:06 | 34.31077 | -117.76297 | 23875 ft | 403 kts | 53° |
| 2026-05-06 11:06 | 34.32653 | -117.73476 | 24238 ft | 405 kts | 53° |
| 2026-05-06 11:06 | 34.34230 | -117.70651 | 24702 ft | 405 kts | 53° |
| 2026-05-06 11:07 | 34.35821 | -117.67825 | 25095 ft | 407 kts | 53° |
| 2026-05-06 11:07 | 34.37468 | -117.65026 | 25502 ft | 409 kts | 52° |
| 2026-05-06 11:07 | 34.39146 | -117.62237 | 25904 ft | 411 kts | 52° |
| 2026-05-06 11:07 | 34.40830 | -117.59450 | 26370 ft | 410 kts | 52° |
| 2026-05-06 11:08 | 34.42512 | -117.56662 | 26962 ft | 407 kts | 52° |
| 2026-05-06 11:08 | 34.44170 | -117.53901 | 27569 ft | 403 kts | 52° |
| 2026-05-06 11:08 | 34.45790 | -117.51192 | 28156 ft | 402 kts | 52° |
| 2026-05-06 11:08 | 34.47432 | -117.48441 | 28699 ft | 400 kts | 52° |
| 2026-05-06 11:09 | 34.49060 | -117.45707 | 29135 ft | 401 kts | 52° |
| 2026-05-06 11:09 | 34.52341 | -117.40187 | 29125 ft | 401 kts | 52° |
| 2026-05-06 11:10 | 34.55575 | -117.34733 | 29130 ft | 397 kts | 52° |
| 2026-05-06 11:10 | 34.58792 | -117.29302 | 29135 ft | 399 kts | 52° |
| 2026-05-06 11:11 | 34.62041 | -117.23809 | 29126 ft | 401 kts | 52° |
| 2026-05-06 11:11 | 34.65294 | -117.18300 | 29065 ft | 401 kts | 52° |
| 2026-05-06 11:12 | 34.68551 | -117.12775 | 29072 ft | 401 kts | 52° |
| 2026-05-06 11:12 | 34.71775 | -117.07296 | 29072 ft | 400 kts | 52° |
| 2026-05-06 11:13 | 34.75010 | -117.01792 | 29065 ft | 399 kts | 52° |
| 2026-05-06 11:13 | 34.78215 | -116.96331 | 29065 ft | 398 kts | 52° |
| 2026-05-06 11:14 | 34.81431 | -116.90841 | 29082 ft | 397 kts | 52° |
| 2026-05-06 11:14 | 34.84642 | -116.85352 | 29084 ft | 398 kts | 52° |
| 2026-05-06 11:15 | 34.87851 | -116.79859 | 29070 ft | 398 kts | 52° |
| 2026-05-06 11:15 | 34.91050 | -116.74375 | 29070 ft | 398 kts | 52° |
| 2026-05-06 11:16 | 34.94233 | -116.68833 | 29074 ft | 399 kts | 53° |
| 2026-05-06 11:16 | 34.97358 | -116.63274 | 29067 ft | 399 kts | 53° |
| 2026-05-06 11:17 | 35.00500 | -116.57679 | 29039 ft | 399 kts | 53° |
| 2026-05-06 11:17 | 35.03646 | -116.52082 | 29039 ft | 400 kts | 53° |
| 2026-05-06 11:18 | 35.06767 | -116.46526 | 29010 ft | 392 kts | 53° |
| 2026-05-06 11:18 | 35.08293 | -116.43804 | 28687 ft | 385 kts | 53° |
| 2026-05-06 11:18 | 35.09787 | -116.41138 | 28289 ft | 378 kts | 53° |
| 2026-05-06 11:18 | 35.11383 | -116.38633 | 27856 ft | 370 kts | 46° |
| 2026-05-06 11:19 | 35.13143 | -116.36360 | 27392 ft | 366 kts | 44° |
| 2026-05-06 11:19 | 35.14354 | -116.34868 | 27081 ft | 365 kts | 44° |
| 2026-05-06 11:19 | 35.16113 | -116.32701 | 26638 ft | 361 kts | 44° |
| 2026-05-06 11:19 | 35.17862 | -116.30505 | 26191 ft | 361 kts | 44° |
| 2026-05-06 11:20 | 35.20199 | -116.27511 | 25598 ft | 366 kts | 45° |
| 2026-05-06 11:20 | 35.21353 | -116.26020 | 25295 ft | 365 kts | 45° |
| 2026-05-06 11:20 | 35.23085 | -116.23766 | 24853 ft | 362 kts | 45° |
| 2026-05-06 11:20 | 35.24772 | -116.21478 | 24404 ft | 359 kts | 46° |
| 2026-05-06 11:21 | 35.26424 | -116.19196 | 23964 ft | 357 kts | 46° |
| 2026-05-06 11:21 | 35.28070 | -116.16923 | 23501 ft | 355 kts | 46° |
| 2026-05-06 11:21 | 35.29709 | -116.14669 | 22986 ft | 353 kts | 46° |
| 2026-05-06 11:21 | 35.31340 | -116.12431 | 22538 ft | 350 kts | 46° |
| 2026-05-06 11:22 | 35.32941 | -116.10234 | 22114 ft | 347 kts | 46° |
| 2026-05-06 11:22 | 35.34544 | -116.08034 | 21691 ft | 346 kts | 46° |
| 2026-05-06 11:22 | 35.36144 | -116.05837 | 21260 ft | 344 kts | 46° |
| 2026-05-06 11:22 | 35.37740 | -116.03643 | 20832 ft | 346 kts | 46° |
| 2026-05-06 11:23 | 35.39351 | -116.01429 | 20410 ft | 349 kts | 46° |
| 2026-05-06 11:23 | 35.40963 | -115.99209 | 19978 ft | 348 kts | 46° |
| 2026-05-06 11:23 | 35.42565 | -115.97003 | 19550 ft | 345 kts | 46° |
| 2026-05-06 11:23 | 35.44141 | -115.94829 | 19142 ft | 343 kts | 47° |
| 2026-05-06 11:24 | 35.45722 | -115.92648 | 18724 ft | 341 kts | 47° |
| 2026-05-06 11:24 | 35.47295 | -115.90477 | 18276 ft | 336 kts | 47° |
| 2026-05-06 11:24 | 35.48831 | -115.88354 | 17819 ft | 328 kts | 47° |
| 2026-05-06 11:24 | 35.50350 | -115.86255 | 17409 ft | 328 kts | 47° |
| 2026-05-06 11:25 | 35.51874 | -115.84148 | 16992 ft | 333 kts | 47° |
| 2026-05-06 11:25 | 35.53428 | -115.81999 | 16575 ft | 337 kts | 47° |
| 2026-05-06 11:25 | 35.54946 | -115.79896 | 16428 ft | 325 kts | 47° |
| 2026-05-06 11:25 | 35.56412 | -115.77862 | 16254 ft | 308 kts | 47° |
| 2026-05-06 11:26 | 35.57801 | -115.75936 | 16120 ft | 295 kts | 47° |
| 2026-05-06 11:26 | 35.59140 | -115.74080 | 16014 ft | 288 kts | 46° |
| 2026-05-06 11:26 | 35.60504 | -115.72226 | 15884 ft | 298 kts | 46° |
| 2026-05-06 11:26 | 35.61919 | -115.70323 | 15738 ft | 304 kts | 46° |
| 2026-05-06 11:27 | 35.63346 | -115.68403 | 15578 ft | 303 kts | 46° |
| 2026-05-06 11:27 | 35.64745 | -115.66517 | 15427 ft | 301 kts | 46° |
| 2026-05-06 11:27 | 35.66152 | -115.64618 | 15276 ft | 300 kts | 46° |
| 2026-05-06 11:27 | 35.67550 | -115.62727 | 15131 ft | 298 kts | 46° |
| 2026-05-06 11:28 | 35.68946 | -115.60840 | 14972 ft | 298 kts | 46° |
| 2026-05-06 11:28 | 35.70339 | -115.58954 | 14814 ft | 297 kts | 46° |
| 2026-05-06 11:28 | 35.71733 | -115.57067 | 14670 ft | 297 kts | 46° |
| 2026-05-06 11:28 | 35.73192 | -115.55267 | 14508 ft | 296 kts | 35° |
| 2026-05-06 11:29 | 35.74946 | -115.53951 | 14381 ft | 294 kts | 28° |
| 2026-05-06 11:29 | 35.76721 | -115.52751 | 14230 ft | 295 kts | 27° |
| 2026-05-06 11:29 | 35.78524 | -115.51531 | 14081 ft | 296 kts | 28° |
| 2026-05-06 11:29 | 35.80329 | -115.50296 | 13933 ft | 297 kts | 28° |
| 2026-05-06 11:30 | 35.82130 | -115.49049 | 13774 ft | 295 kts | 28° |
| 2026-05-06 11:30 | 35.83935 | -115.47792 | 13606 ft | 296 kts | 28° |
| 2026-05-06 11:30 | 35.85733 | -115.46534 | 13443 ft | 296 kts | 28° |
| 2026-05-06 11:30 | 35.87503 | -115.45292 | 13287 ft | 296 kts | 28° |
| 2026-05-06 11:31 | 35.89287 | -115.44039 | 13134 ft | 294 kts | 28° |
| 2026-05-06 11:31 | 35.91065 | -115.42790 | 12924 ft | 295 kts | 28° |
| 2026-05-06 11:31 | 35.92867 | -115.41532 | 12583 ft | 298 kts | 28° |
| 2026-05-06 11:31 | 35.94673 | -115.40273 | 12241 ft | 296 kts | 28° |
| 2026-05-06 11:32 | 35.96458 | -115.39027 | 11902 ft | 294 kts | 28° |
| 2026-05-06 11:32 | 35.98221 | -115.37797 | 11570 ft | 292 kts | 28° |
| 2026-05-06 11:32 | 35.99921 | -115.36428 | 11230 ft | 292 kts | 42° |
| 2026-05-06 11:32 | 36.01047 | -115.34348 | 10963 ft | 292 kts | 66° |
| 2026-05-06 11:33 | 36.01473 | -115.31916 | 10759 ft | 292 kts | 86° |
| 2026-05-06 11:33 | 36.01392 | -115.29419 | 10579 ft | 290 kts | 91° |
| 2026-05-06 11:33 | 36.01254 | -115.26927 | 10369 ft | 291 kts | 91° |
| 2026-05-06 11:33 | 36.01111 | -115.24425 | 10164 ft | 291 kts | 91° |
| 2026-05-06 11:34 | 36.00974 | -115.21952 | 9942 ft | 287 kts | 91° |
| 2026-05-06 11:34 | 36.00844 | -115.19511 | 9729 ft | 282 kts | 91° |
| 2026-05-06 11:34 | 36.00723 | -115.17152 | 9511 ft | 273 kts | 91° |
| 2026-05-06 11:34 | 36.00607 | -115.14855 | 9310 ft | 262 kts | 91° |
| 2026-05-06 11:35 | 36.00496 | -115.12654 | 9135 ft | 250 kts | 91° |
| 2026-05-06 11:35 | 36.00389 | -115.10558 | 8987 ft | 239 kts | 91° |
| 2026-05-06 11:35 | 36.00289 | -115.08583 | 8763 ft | 227 kts | 91° |
| 2026-05-06 11:35 | 36.00191 | -115.06653 | 8549 ft | 224 kts | 91° |
| 2026-05-06 11:36 | 36.00093 | -115.04712 | 8314 ft | 226 kts | 91° |
| 2026-05-06 11:36 | 35.99993 | -115.02777 | 8122 ft | 227 kts | 91° |
| 2026-05-06 11:36 | 35.99845 | -115.00841 | 7822 ft | 225 kts | 94° |
| 2026-05-06 11:36 | 35.99441 | -114.98954 | 7329 ft | 229 kts | 116° |
| 2026-05-06 11:37 | 35.99034 | -114.97098 | 7004 ft | 225 kts | 85° |
| 2026-05-06 11:37 | 35.99227 | -114.95216 | 6733 ft | 218 kts | 82° |
| 2026-05-06 11:37 | 35.99757 | -114.93557 | 6514 ft | 212 kts | 44° |
| 2026-05-06 11:37 | 36.01018 | -114.92792 | 6255 ft | 201 kts | 1° |
| 2026-05-06 11:38 | 36.02365 | -114.92943 | 5976 ft | 189 kts | 343° |
| 2026-05-06 11:38 | 36.03591 | -114.93439 | 5717 ft | 184 kts | 337° |
| 2026-05-06 11:38 | 36.04813 | -114.94001 | 5442 ft | 190 kts | 337° |
| 2026-05-06 11:38 | 36.06053 | -114.94596 | 5140 ft | 190 kts | 330° |
| 2026-05-06 11:39 | 36.06910 | -114.95743 | 4779 ft | 182 kts | 286° |
| 2026-05-06 11:39 | 36.07153 | -114.97210 | 4527 ft | 169 kts | 275° |
| 2026-05-06 11:39 | 36.07290 | -114.98611 | 4275 ft | 156 kts | 274° |
| 2026-05-06 11:39 | 36.07362 | -114.99902 | 4089 ft | 152 kts | 268° |
| 2026-05-06 11:40 | 36.07378 | -115.01220 | 3904 ft | 154 kts | 268° |
| 2026-05-06 11:40 | 36.07380 | -115.02526 | 3699 ft | 149 kts | 267° |
| 2026-05-06 11:40 | 36.07378 | -115.03816 | 3509 ft | 152 kts | 268° |
| 2026-05-06 11:40 | 36.07376 | -115.05125 | 3317 ft | 151 kts | 266° |
| 2026-05-06 11:41 | 36.07373 | -115.06402 | 3114 ft | 150 kts | 265° |
| 2026-05-06 11:41 | 36.07371 | -115.07717 | 2916 ft | 154 kts | 266° |
| 2026-05-06 11:41 | 36.07371 | -115.09035 | 2695 ft | 153 kts | 265° |
| 2026-05-06 11:41 | 36.07357 | -115.10347 | 2436 ft | 152 kts | 266° |
| 2026-05-06 11:42 | 36.07366 | -115.11648 | 2218 ft | 151 kts | 266° |
| 2026-05-06 11:42 | 36.07362 | -115.12947 | 2073 ft | 148 kts | 266° |
| 2026-05-06 11:42 | 36.07365 | -115.14039 | 2082 ft | 99 kts | 269° |
| 2026-05-06 11:42 | 36.07366 | -115.14734 | 2092 ft | 65 kts | 270° |
| 2026-05-06 11:43 | 36.07363 | -115.15092 | 2097 ft | 10 kts | 270° |
| 2026-05-06 11:43 | 36.07364 | -115.15183 | 2099 ft | 10 kts | 272° |
| 2026-05-06 11:43 | 36.07375 | -115.15269 | 2102 ft | 10 kts | 285° |
| 2026-05-06 11:44 | 36.07426 | -115.15425 | 2105 ft | 10 kts | 298° |
| 2026-05-06 11:44 | 36.07459 | -115.15496 | 2106 ft | 9 kts | 301° |
| 2026-05-06 11:44 | 36.07503 | -115.15503 | 2105 ft | 9 kts | 67° |
| 2026-05-06 11:44 | 36.07502 | -115.15425 | 2103 ft | 9 kts | 88° |
| 2026-05-06 11:45 | 36.07513 | -115.15346 | 2104 ft | 9 kts | 79° |
| 2026-05-06 11:45 | 36.07508 | -115.15268 | 2102 ft | 9 kts | 94° |
| 2026-05-06 11:45 | 36.07504 | -115.15186 | 2101 ft | 9 kts | 91° |
| 2026-05-06 11:45 | 36.07504 | -115.15107 | 2100 ft | 9 kts | 91° |
| 2026-05-06 11:46 | 36.07505 | -115.15028 | 2099 ft | 9 kts | 89° |
| 2026-05-06 11:46 | 36.07504 | -115.14951 | 2098 ft | 9 kts | 91° |
| 2026-05-06 11:46 | 36.07504 | -115.14876 | 2098 ft | 9 kts | 90° |
| 2026-05-06 11:46 | 36.07504 | -115.14804 | 2097 ft | 8 kts | 90° |
| 2026-05-06 11:47 | 36.07503 | -115.14733 | 2097 ft | 8 kts | 89° |
| 2026-05-06 11:47 | 36.07517 | -115.14669 | 2097 ft | 8 kts | 47° |
| 2026-05-06 11:47 | 36.07568 | -115.14655 | 2099 ft | 8 kts | 0° |
| 2026-05-06 11:47 | 36.07619 | -115.14655 | 2101 ft | 7 kts | 0° |
| 2026-05-06 11:48 | 36.07670 | -115.14655 | 2101 ft | 7 kts | 359° |
| 2026-05-06 11:48 | 36.07727 | -115.14656 | 2098 ft | 10 kts | 359° |
| 2026-05-06 11:48 | 36.07773 | -115.14609 | 2096 ft | 10 kts | 93° |
| 2026-05-06 11:48 | 36.07767 | -115.14523 | 2096 ft | 10 kts | 94° |
| 2026-05-06 11:49 | 36.07762 | -115.14440 | 2096 ft | 10 kts | 95° |
| 2026-05-06 11:49 | 36.07757 | -115.14359 | 2095 ft | 9 kts | 94° |
| 2026-05-06 11:49 | 36.07757 | -115.14280 | 2095 ft | 9 kts | 76° |
| 2026-05-06 11:49 | 36.07804 | -115.14237 | 2094 ft | 9 kts | 28° |
| 2026-05-06 11:50 | 36.07827 | -115.14170 | 2094 ft | 9 kts | 88° |
| 2026-05-06 11:50 | 36.07828 | -115.14094 | 2093 ft | 9 kts | 89° |
| 2026-05-06 11:50 | 36.07836 | -115.14022 | 2092 ft | 9 kts | 61° |
| 2026-05-06 11:50 | 36.07873 | -115.13967 | 2092 ft | 8 kts | 45° |
| 2026-05-06 11:51 | 36.07914 | -115.13917 | 2092 ft | 8 kts | 45° |
| 2026-05-06 11:51 | 36.07953 | -115.13869 | 2092 ft | 8 kts | 45° |
| 2026-05-06 11:51 | 36.07991 | -115.13821 | 2092 ft | 8 kts | 45° |
| 2026-05-06 11:51 | 36.08018 | -115.13768 | 2092 ft | 7 kts | 80° |
| 2026-05-06 11:52 | 36.08018 | -115.13705 | 2091 ft | 7 kts | 89° |
| 2026-05-06 11:52 | 36.08042 | -115.13661 | 2091 ft | 2 kts | 46° |
| 2026-05-06 11:52 | 36.08052 | -115.13649 | 2091 ft | 2 kts | 45° |
| 2026-05-06 11:52 | 36.08054 | -115.13646 | 2091 ft | 0 kts | 44° |